sensor_id;sensor_type;location;lat;lon;timestamp;temperature;humidity
29201;DHT22;16244;51.956;12.980;2023-08-31T00:00:14;15.00;99.90
29201;DHT22;16244;51.956;12.980;2023-08-31T00:02:42;15.00;99.90
29201;DHT22;16244;51.956;12.980;2023-08-31T00:05:09;14.90;99.90
29201;DHT22;16244;51.956;12.980;2023-08-31T00:07:37;15.00;99.90
29201;DHT22;16244;51.956;12.980;2023-08-31T00:10:05;15.00;99.90
29201;DHT22;16244;51.956;12.980;2023-08-31T00:12:35;15.00;99.90
29201;DHT22;16244;51.956;12.980;2023-08-31T00:15:06;15.00;99.90
29201;DHT22;16244;51.956;12.980;2023-08-31T00:17:35;15.00;99.90
29201;DHT22;16244;51.956;12.980;2023-08-31T00:20:05;15.00;99.90
29201;DHT22;16244;51.956;12.980;2023-08-31T00:22:33;15.00;99.90
29201;DHT22;16244;51.956;12.980;2023-08-31T00:25:01;15.10;99.90
29201;DHT22;16244;51.956;12.980;2023-08-31T00:27:28;15.10;99.90
29201;DHT22;16244;51.956;12.980;2023-08-31T00:29:56;15.10;99.90
29201;DHT22;16244;51.956;12.980;2023-08-31T00:32:25;15.10;99.90
29201;DHT22;16244;51.956;12.980;2023-08-31T00:34:58;15.00;99.90
29201;DHT22;16244;51.956;12.980;2023-08-31T00:37:30;15.00;99.90
29201;DHT22;16244;51.956;12.980;2023-08-31T00:40:03;14.90;99.90
29201;DHT22;16244;51.956;12.980;2023-08-31T00:42:33;14.80;99.90
29201;DHT22;16244;51.956;12.980;2023-08-31T00:45:00;14.80;99.90
29201;DHT22;16244;51.956;12.980;2023-08-31T00:47:30;14.80;99.90
29201;DHT22;16244;51.956;12.980;2023-08-31T00:49:57;14.80;99.90
29201;DHT22;16244;51.956;12.980;2023-08-31T00:52:26;14.80;99.90
29201;DHT22;16244;51.956;12.980;2023-08-31T00:54:54;14.80;99.90
29201;DHT22;16244;51.956;12.980;2023-08-31T00:57:21;14.80;99.90
29201;DHT22;16244;51.956;12.980;2023-08-31T00:59:49;14.70;99.90
29201;DHT22;16244;51.956;12.980;2023-08-31T01:02:20;14.70;99.90
29201;DHT22;16244;51.956;12.980;2023-08-31T01:04:55;14.70;99.90
29201;DHT22;16244;51.956;12.980;2023-08-31T01:07:30;14.70;99.90
29201;DHT22;16244;51.956;12.980;2023-08-31T01:10:07;14.70;99.90
29201;DHT22;16244;51.956;12.980;2023-08-31T01:12:44;14.70;99.90
29201;DHT22;16244;51.956;12.980;2023-08-31T01:15:14;14.70;99.90
29201;DHT22;16244;51.956;12.980;2023-08-31T01:17:45;14.80;99.90
29201;DHT22;16244;51.956;12.980;2023-08-31T01:20:19;14.80;99.90
29201;DHT22;16244;51.956;12.980;2023-08-31T01:22:51;14.80;99.90
29201;DHT22;16244;51.956;12.980;2023-08-31T01:25:24;14.70;99.90
29201;DHT22;16244;51.956;12.980;2023-08-31T01:27:52;14.70;99.90
29201;DHT22;16244;51.956;12.980;2023-08-31T01:30:20;14.70;99.90
29201;DHT22;16244;51.956;12.980;2023-08-31T01:32:48;14.60;99.90
29201;DHT22;16244;51.956;12.980;2023-08-31T01:35:17;14.60;99.90
29201;DHT22;16244;51.956;12.980;2023-08-31T01:37:49;14.50;99.90
29201;DHT22;16244;51.956;12.980;2023-08-31T01:40:21;14.50;99.90
29201;DHT22;16244;51.956;12.980;2023-08-31T01:42:52;14.50;99.90
29201;DHT22;16244;51.956;12.980;2023-08-31T01:45:22;14.50;99.90
29201;DHT22;16244;51.956;12.980;2023-08-31T01:47:49;14.40;99.90
29201;DHT22;16244;51.956;12.980;2023-08-31T01:50:17;14.50;99.90
29201;DHT22;16244;51.956;12.980;2023-08-31T01:52:45;14.40;99.90
29201;DHT22;16244;51.956;12.980;2023-08-31T01:55:12;14.40;99.90
29201;DHT22;16244;51.956;12.980;2023-08-31T01:57:42;14.40;99.90
29201;DHT22;16244;51.956;12.980;2023-08-31T02:00:12;14.40;99.90
29201;DHT22;16244;51.956;12.980;2023-08-31T02:02:39;14.40;99.90
29201;DHT22;16244;51.956;12.980;2023-08-31T02:05:07;14.30;99.90
29201;DHT22;16244;51.956;12.980;2023-08-31T02:07:36;14.40;99.90
29201;DHT22;16244;51.956;12.980;2023-08-31T02:10:04;14.40;99.90
29201;DHT22;16244;51.956;12.980;2023-08-31T02:12:32;14.40;99.90
29201;DHT22;16244;51.956;12.980;2023-08-31T02:14:59;14.40;99.90
29201;DHT22;16244;51.956;12.980;2023-08-31T02:17:28;14.30;99.90
29201;DHT22;16244;51.956;12.980;2023-08-31T02:19:56;14.30;99.90
29201;DHT22;16244;51.956;12.980;2023-08-31T02:22:24;14.30;99.90
29201;DHT22;16244;51.956;12.980;2023-08-31T02:24:51;14.20;99.90
29201;DHT22;16244;51.956;12.980;2023-08-31T02:27:18;14.30;99.90
29201;DHT22;16244;51.956;12.980;2023-08-31T02:29:46;14.30;99.90
29201;DHT22;16244;51.956;12.980;2023-08-31T02:32:13;14.20;99.90
29201;DHT22;16244;51.956;12.980;2023-08-31T02:34:42;14.20;99.90
29201;DHT22;16244;51.956;12.980;2023-08-31T02:37:09;14.10;99.90
29201;DHT22;16244;51.956;12.980;2023-08-31T02:39:37;14.20;99.90
29201;DHT22;16244;51.956;12.980;2023-08-31T02:42:06;14.20;99.90
29201;DHT22;16244;51.956;12.980;2023-08-31T02:44:34;14.20;99.90
29201;DHT22;16244;51.956;12.980;2023-08-31T02:47:01;14.30;99.90
29201;DHT22;16244;51.956;12.980;2023-08-31T02:49:29;14.20;99.90
29201;DHT22;16244;51.956;12.980;2023-08-31T02:51:58;14.30;99.90
29201;DHT22;16244;51.956;12.980;2023-08-31T02:54:25;14.30;99.90
29201;DHT22;16244;51.956;12.980;2023-08-31T02:56:52;14.30;99.90
29201;DHT22;16244;51.956;12.980;2023-08-31T02:59:20;14.30;99.90
29201;DHT22;16244;51.956;12.980;2023-08-31T03:01:48;14.30;99.90
29201;DHT22;16244;51.956;12.980;2023-08-31T03:04:15;14.30;99.90
29201;DHT22;16244;51.956;12.980;2023-08-31T03:06:43;14.30;99.90
29201;DHT22;16244;51.956;12.980;2023-08-31T03:09:13;14.20;99.90
29201;DHT22;16244;51.956;12.980;2023-08-31T03:11:40;14.20;99.90
29201;DHT22;16244;51.956;12.980;2023-08-31T03:14:08;14.30;99.90
29201;DHT22;16244;51.956;12.980;2023-08-31T03:16:36;14.20;99.90
29201;DHT22;16244;51.956;12.980;2023-08-31T03:19:03;14.30;99.90
29201;DHT22;16244;51.956;12.980;2023-08-31T03:21:31;14.20;99.90
29201;DHT22;16244;51.956;12.980;2023-08-31T03:23:59;14.30;99.90
29201;DHT22;16244;51.956;12.980;2023-08-31T03:26:28;14.20;99.90
29201;DHT22;16244;51.956;12.980;2023-08-31T03:28:56;14.20;99.90
29201;DHT22;16244;51.956;12.980;2023-08-31T03:31:24;14.20;99.90
29201;DHT22;16244;51.956;12.980;2023-08-31T03:33:51;14.20;99.90
29201;DHT22;16244;51.956;12.980;2023-08-31T03:36:19;14.20;99.90
29201;DHT22;16244;51.956;12.980;2023-08-31T03:38:46;14.20;99.90
29201;DHT22;16244;51.956;12.980;2023-08-31T03:41:13;14.20;99.90
29201;DHT22;16244;51.956;12.980;2023-08-31T03:43:42;14.20;99.90
29201;DHT22;16244;51.956;12.980;2023-08-31T03:46:10;14.20;99.90
29201;DHT22;16244;51.956;12.980;2023-08-31T03:48:37;14.20;99.90
29201;DHT22;16244;51.956;12.980;2023-08-31T03:51:04;14.20;99.90
29201;DHT22;16244;51.956;12.980;2023-08-31T03:53:32;14.20;99.90
29201;DHT22;16244;51.956;12.980;2023-08-31T03:55:59;14.20;99.90
29201;DHT22;16244;51.956;12.980;2023-08-31T03:58:27;14.20;99.90
29201;DHT22;16244;51.956;12.980;2023-08-31T04:00:55;14.20;99.90
29201;DHT22;16244;51.956;12.980;2023-08-31T04:03:23;14.10;99.90
29201;DHT22;16244;51.956;12.980;2023-08-31T04:05:54;14.10;99.90
29201;DHT22;16244;51.956;12.980;2023-08-31T04:08:21;14.10;99.90
29201;DHT22;16244;51.956;12.980;2023-08-31T04:10:49;14.00;99.90
29201;DHT22;16244;51.956;12.980;2023-08-31T04:13:16;14.00;99.90
29201;DHT22;16244;51.956;12.980;2023-08-31T04:15:43;14.00;99.90
29201;DHT22;16244;51.956;12.980;2023-08-31T04:18:12;14.00;99.90
29201;DHT22;16244;51.956;12.980;2023-08-31T04:20:49;13.90;99.90
29201;DHT22;16244;51.956;12.980;2023-08-31T04:23:18;14.00;99.90
29201;DHT22;16244;51.956;12.980;2023-08-31T04:25:46;14.00;99.90
29201;DHT22;16244;51.956;12.980;2023-08-31T04:28:13;13.90;99.90
29201;DHT22;16244;51.956;12.980;2023-08-31T04:30:41;14.00;99.90
29201;DHT22;16244;51.956;12.980;2023-08-31T04:33:09;14.00;99.90
29201;DHT22;16244;51.956;12.980;2023-08-31T04:35:38;14.00;99.90
29201;DHT22;16244;51.956;12.980;2023-08-31T04:38:05;14.00;99.90
29201;DHT22;16244;51.956;12.980;2023-08-31T04:40:33;13.90;99.90
29201;DHT22;16244;51.956;12.980;2023-08-31T04:43:00;13.90;99.90
29201;DHT22;16244;51.956;12.980;2023-08-31T04:45:28;13.90;99.90
29201;DHT22;16244;51.956;12.980;2023-08-31T04:47:55;13.90;99.90
29201;DHT22;16244;51.956;12.980;2023-08-31T04:50:22;13.90;99.90
29201;DHT22;16244;51.956;12.980;2023-08-31T04:52:51;13.90;99.90
29201;DHT22;16244;51.956;12.980;2023-08-31T04:55:21;13.90;99.90
29201;DHT22;16244;51.956;12.980;2023-08-31T04:57:49;13.90;99.90
29201;DHT22;16244;51.956;12.980;2023-08-31T05:00:17;13.90;99.90
29201;DHT22;16244;51.956;12.980;2023-08-31T05:02:44;13.90;99.90
29201;DHT22;16244;51.956;12.980;2023-08-31T05:05:12;13.90;99.90
29201;DHT22;16244;51.956;12.980;2023-08-31T05:07:40;14.00;99.90
29201;DHT22;16244;51.956;12.980;2023-08-31T05:10:09;13.90;99.90
29201;DHT22;16244;51.956;12.980;2023-08-31T05:12:37;13.90;99.90
29201;DHT22;16244;51.956;12.980;2023-08-31T05:15:06;13.90;99.90
29201;DHT22;16244;51.956;12.980;2023-08-31T05:17:34;14.00;99.90
29201;DHT22;16244;51.956;12.980;2023-08-31T05:20:01;13.90;99.90
29201;DHT22;16244;51.956;12.980;2023-08-31T05:22:31;13.90;99.90
29201;DHT22;16244;51.956;12.980;2023-08-31T05:24:58;14.00;99.90
29201;DHT22;16244;51.956;12.980;2023-08-31T05:27:28;14.00;99.90
29201;DHT22;16244;51.956;12.980;2023-08-31T05:29:55;14.00;99.90
29201;DHT22;16244;51.956;12.980;2023-08-31T05:32:22;14.00;99.90
29201;DHT22;16244;51.956;12.980;2023-08-31T05:34:50;14.00;99.90
29201;DHT22;16244;51.956;12.980;2023-08-31T05:37:17;14.00;99.90
29201;DHT22;16244;51.956;12.980;2023-08-31T05:39:47;14.00;99.90
29201;DHT22;16244;51.956;12.980;2023-08-31T05:42:15;14.10;99.90
29201;DHT22;16244;51.956;12.980;2023-08-31T05:44:44;14.10;99.90
29201;DHT22;16244;51.956;12.980;2023-08-31T05:47:11;14.10;99.90
29201;DHT22;16244;51.956;12.980;2023-08-31T05:49:40;14.10;99.90
29201;DHT22;16244;51.956;12.980;2023-08-31T05:52:10;14.10;99.90
29201;DHT22;16244;51.956;12.980;2023-08-31T05:54:38;14.20;99.90
29201;DHT22;16244;51.956;12.980;2023-08-31T05:57:05;14.20;99.90
29201;DHT22;16244;51.956;12.980;2023-08-31T05:59:33;14.20;99.90
29201;DHT22;16244;51.956;12.980;2023-08-31T06:02:01;14.20;99.90
29201;DHT22;16244;51.956;12.980;2023-08-31T06:04:30;14.20;99.90
29201;DHT22;16244;51.956;12.980;2023-08-31T06:06:58;14.20;99.90
29201;DHT22;16244;51.956;12.980;2023-08-31T06:09:26;14.30;99.90
29201;DHT22;16244;51.956;12.980;2023-08-31T06:11:53;14.30;99.90
29201;DHT22;16244;51.956;12.980;2023-08-31T06:14:20;14.40;99.90
29201;DHT22;16244;51.956;12.980;2023-08-31T06:16:48;14.40;99.90
29201;DHT22;16244;51.956;12.980;2023-08-31T06:19:17;14.40;99.90
29201;DHT22;16244;51.956;12.980;2023-08-31T06:21:44;14.50;99.90
29201;DHT22;16244;51.956;12.980;2023-08-31T06:24:12;14.50;99.90
29201;DHT22;16244;51.956;12.980;2023-08-31T06:26:41;14.50;99.90
29201;DHT22;16244;51.956;12.980;2023-08-31T06:29:08;14.50;99.90
29201;DHT22;16244;51.956;12.980;2023-08-31T06:31:37;14.60;99.90
29201;DHT22;16244;51.956;12.980;2023-08-31T06:34:04;14.60;99.90
29201;DHT22;16244;51.956;12.980;2023-08-31T06:36:33;14.60;99.90
29201;DHT22;16244;51.956;12.980;2023-08-31T06:39:00;14.60;99.90
29201;DHT22;16244;51.956;12.980;2023-08-31T06:41:28;14.60;99.90
29201;DHT22;16244;51.956;12.980;2023-08-31T06:43:56;14.60;99.90
29201;DHT22;16244;51.956;12.980;2023-08-31T06:46:24;14.60;99.90
29201;DHT22;16244;51.956;12.980;2023-08-31T06:48:51;14.60;99.90
29201;DHT22;16244;51.956;12.980;2023-08-31T06:51:19;14.50;99.90
29201;DHT22;16244;51.956;12.980;2023-08-31T06:53:48;14.60;99.90
29201;DHT22;16244;51.956;12.980;2023-08-31T06:56:15;14.60;99.90
29201;DHT22;16244;51.956;12.980;2023-08-31T06:58:43;14.50;99.90
29201;DHT22;16244;51.956;12.980;2023-08-31T07:01:12;14.70;99.90
29201;DHT22;16244;51.956;12.980;2023-08-31T07:03:40;15.00;99.90
29201;DHT22;16244;51.956;12.980;2023-08-31T07:06:08;15.20;99.90
29201;DHT22;16244;51.956;12.980;2023-08-31T07:08:35;15.30;99.90
29201;DHT22;16244;51.956;12.980;2023-08-31T07:11:04;15.50;99.90
29201;DHT22;16244;51.956;12.980;2023-08-31T07:13:32;15.60;99.90
29201;DHT22;16244;51.956;12.980;2023-08-31T07:15:59;15.50;99.90
29201;DHT22;16244;51.956;12.980;2023-08-31T07:18:27;15.60;99.90
29201;DHT22;16244;51.956;12.980;2023-08-31T07:20:54;15.70;99.90
29201;DHT22;16244;51.956;12.980;2023-08-31T07:23:21;16.10;99.90
29201;DHT22;16244;51.956;12.980;2023-08-31T07:25:49;16.40;99.90
29201;DHT22;16244;51.956;12.980;2023-08-31T07:28:18;16.60;99.90
29201;DHT22;16244;51.956;12.980;2023-08-31T07:30:45;16.60;99.90
29201;DHT22;16244;51.956;12.980;2023-08-31T07:33:13;16.90;99.90
29201;DHT22;16244;51.956;12.980;2023-08-31T07:35:40;17.20;99.90
29201;DHT22;16244;51.956;12.980;2023-08-31T07:38:08;17.20;99.90
29201;DHT22;16244;51.956;12.980;2023-08-31T07:40:35;17.30;99.90
29201;DHT22;16244;51.956;12.980;2023-08-31T07:43:03;17.40;99.90
29201;DHT22;16244;51.956;12.980;2023-08-31T07:45:32;17.40;99.90
29201;DHT22;16244;51.956;12.980;2023-08-31T07:48:00;17.30;99.90
29201;DHT22;16244;51.956;12.980;2023-08-31T07:50:27;17.20;99.90
29201;DHT22;16244;51.956;12.980;2023-08-31T07:52:54;16.80;99.90
29201;DHT22;16244;51.956;12.980;2023-08-31T07:55:22;16.60;99.90
29201;DHT22;16244;51.956;12.980;2023-08-31T07:57:49;16.80;99.90
29201;DHT22;16244;51.956;12.980;2023-08-31T08:00:17;17.10;99.90
29201;DHT22;16244;51.956;12.980;2023-08-31T08:02:46;17.60;99.90
29201;DHT22;16244;51.956;12.980;2023-08-31T08:05:14;17.90;99.10
29201;DHT22;16244;51.956;12.980;2023-08-31T08:07:41;17.80;99.60
29201;DHT22;16244;51.956;12.980;2023-08-31T08:10:10;17.60;98.70
29201;DHT22;16244;51.956;12.980;2023-08-31T08:12:37;17.40;99.90
29201;DHT22;16244;51.956;12.980;2023-08-31T08:15:06;17.10;99.90
29201;DHT22;16244;51.956;12.980;2023-08-31T08:17:34;16.90;99.90
29201;DHT22;16244;51.956;12.980;2023-08-31T08:20:04;16.60;99.90
29201;DHT22;16244;51.956;12.980;2023-08-31T08:22:32;16.60;99.90
29201;DHT22;16244;51.956;12.980;2023-08-31T08:24:59;16.90;99.90
29201;DHT22;16244;51.956;12.980;2023-08-31T08:27:27;17.60;99.90
29201;DHT22;16244;51.956;12.980;2023-08-31T08:29:54;18.40;96.30
29201;DHT22;16244;51.956;12.980;2023-08-31T08:32:22;19.10;96.90
29201;DHT22;16244;51.956;12.980;2023-08-31T08:34:50;19.70;92.20
29201;DHT22;16244;51.956;12.980;2023-08-31T08:37:19;19.80;91.40
29201;DHT22;16244;51.956;12.980;2023-08-31T08:39:48;19.10;86.00
29201;DHT22;16244;51.956;12.980;2023-08-31T08:42:18;18.60;90.50
29201;DHT22;16244;51.956;12.980;2023-08-31T08:44:46;18.80;92.10
29201;DHT22;16244;51.956;12.980;2023-08-31T08:47:14;19.20;91.10
29201;DHT22;16244;51.956;12.980;2023-08-31T08:49:43;19.50;92.60
29201;DHT22;16244;51.956;12.980;2023-08-31T08:52:10;20.10;84.80
29201;DHT22;16244;51.956;12.980;2023-08-31T08:54:40;20.60;88.00
29201;DHT22;16244;51.956;12.980;2023-08-31T08:57:07;21.40;84.90
29201;DHT22;16244;51.956;12.980;2023-08-31T08:59:35;21.50;71.20
29201;DHT22;16244;51.956;12.980;2023-08-31T09:02:03;21.20;65.60
29201;DHT22;16244;51.956;12.980;2023-08-31T09:04:30;20.70;76.70
29201;DHT22;16244;51.956;12.980;2023-08-31T09:06:58;20.30;74.10
29201;DHT22;16244;51.956;12.980;2023-08-31T09:09:25;20.00;76.70
29201;DHT22;16244;51.956;12.980;2023-08-31T09:11:54;19.30;80.20
29201;DHT22;16244;51.956;12.980;2023-08-31T09:14:22;18.80;82.10
29201;DHT22;16244;51.956;12.980;2023-08-31T09:16:51;18.60;86.60
29201;DHT22;16244;51.956;12.980;2023-08-31T09:19:20;18.50;91.50
29201;DHT22;16244;51.956;12.980;2023-08-31T09:21:48;19.10;90.90
29201;DHT22;16244;51.956;12.980;2023-08-31T09:24:16;19.70;80.30
29201;DHT22;16244;51.956;12.980;2023-08-31T09:26:45;20.00;72.40
29201;DHT22;16244;51.956;12.980;2023-08-31T09:29:14;20.20;77.20
29201;DHT22;16244;51.956;12.980;2023-08-31T09:31:42;20.90;79.50
29201;DHT22;16244;51.956;12.980;2023-08-31T09:34:11;22.10;68.20
29201;DHT22;16244;51.956;12.980;2023-08-31T09:36:38;23.00;64.40
29201;DHT22;16244;51.956;12.980;2023-08-31T09:39:06;23.30;53.80
29201;DHT22;16244;51.956;12.980;2023-08-31T09:41:34;23.70;56.10
29201;DHT22;16244;51.956;12.980;2023-08-31T09:44:16;23.50;52.20
29201;DHT22;16244;51.956;12.980;2023-08-31T09:46:46;22.40;55.80
29201;DHT22;16244;51.956;12.980;2023-08-31T09:49:15;21.40;63.90
29201;DHT22;16244;51.956;12.980;2023-08-31T09:51:44;20.50;71.50
29201;DHT22;16244;51.956;12.980;2023-08-31T09:54:14;19.60;86.20
29201;DHT22;16244;51.956;12.980;2023-08-31T09:56:42;18.90;93.10
29201;DHT22;16244;51.956;12.980;2023-08-31T09:59:11;19.00;93.20
29201;DHT22;16244;51.956;12.980;2023-08-31T10:01:42;19.30;90.90
29201;DHT22;16244;51.956;12.980;2023-08-31T10:04:09;19.30;90.50
29201;DHT22;16244;51.956;12.980;2023-08-31T10:06:39;20.10;90.70
29201;DHT22;16244;51.956;12.980;2023-08-31T10:09:07;20.70;72.40
29201;DHT22;16244;51.956;12.980;2023-08-31T10:11:37;21.30;66.20
29201;DHT22;16244;51.956;12.980;2023-08-31T10:14:05;21.30;58.20
29201;DHT22;16244;51.956;12.980;2023-08-31T10:16:33;21.10;59.60
29201;DHT22;16244;51.956;12.980;2023-08-31T10:19:02;21.20;68.10
29201;DHT22;16244;51.956;12.980;2023-08-31T10:21:30;21.90;65.20
29201;DHT22;16244;51.956;12.980;2023-08-31T10:23:57;21.70;54.70
29201;DHT22;16244;51.956;12.980;2023-08-31T10:26:26;22.40;59.80
29201;DHT22;16244;51.956;12.980;2023-08-31T10:28:54;22.80;57.40
29201;DHT22;16244;51.956;12.980;2023-08-31T10:31:22;22.80;53.70
29201;DHT22;16244;51.956;12.980;2023-08-31T10:33:55;22.70;53.90
29201;DHT22;16244;51.956;12.980;2023-08-31T10:36:37;22.70;51.20
29201;DHT22;16244;51.956;12.980;2023-08-31T10:39:11;22.50;50.10
29201;DHT22;16244;51.956;12.980;2023-08-31T10:41:39;22.30;49.60
29201;DHT22;16244;51.956;12.980;2023-08-31T10:44:20;22.30;56.40
29201;DHT22;16244;51.956;12.980;2023-08-31T10:46:48;22.60;52.10
29201;DHT22;16244;51.956;12.980;2023-08-31T10:49:18;22.70;51.10
29201;DHT22;16244;51.956;12.980;2023-08-31T10:51:48;22.70;50.30
29201;DHT22;16244;51.956;12.980;2023-08-31T10:54:20;22.90;52.10
29201;DHT22;16244;51.956;12.980;2023-08-31T10:57:04;23.30;51.90
29201;DHT22;16244;51.956;12.980;2023-08-31T10:59:46;22.80;50.30
29201;DHT22;16244;51.956;12.980;2023-08-31T11:02:31;22.00;51.20
29201;DHT22;16244;51.956;12.980;2023-08-31T11:05:08;21.00;53.50
29201;DHT22;16244;51.956;12.980;2023-08-31T11:07:38;20.20;58.00
29201;DHT22;16244;51.956;12.980;2023-08-31T11:10:10;19.70;63.30
29201;DHT22;16244;51.956;12.980;2023-08-31T11:12:38;19.20;66.40
29201;DHT22;16244;51.956;12.980;2023-08-31T11:15:06;19.10;72.90
29201;DHT22;16244;51.956;12.980;2023-08-31T11:17:34;18.90;74.70
29201;DHT22;16244;51.956;12.980;2023-08-31T11:20:02;18.60;76.10
29201;DHT22;16244;51.956;12.980;2023-08-31T11:22:31;18.40;80.80
29201;DHT22;16244;51.956;12.980;2023-08-31T11:25:01;18.30;79.40
29201;DHT22;16244;51.956;12.980;2023-08-31T11:27:29;18.00;79.50
29201;DHT22;16244;51.956;12.980;2023-08-31T11:29:57;17.80;82.90
29201;DHT22;16244;51.956;12.980;2023-08-31T11:32:24;17.60;90.00
29201;DHT22;16244;51.956;12.980;2023-08-31T11:34:52;17.40;92.10
29201;DHT22;16244;51.956;12.980;2023-08-31T11:37:19;17.10;93.30
29201;DHT22;16244;51.956;12.980;2023-08-31T11:39:50;16.80;93.80
29201;DHT22;16244;51.956;12.980;2023-08-31T11:42:20;16.60;94.30
29201;DHT22;16244;51.956;12.980;2023-08-31T11:44:49;16.30;96.70
29201;DHT22;16244;51.956;12.980;2023-08-31T11:47:18;16.20;98.30
29201;DHT22;16244;51.956;12.980;2023-08-31T11:49:47;16.00;99.40
29201;DHT22;16244;51.956;12.980;2023-08-31T11:52:15;15.70;99.90
29201;DHT22;16244;51.956;12.980;2023-08-31T11:54:43;15.50;99.90
29201;DHT22;16244;51.956;12.980;2023-08-31T11:57:12;15.60;99.90
29201;DHT22;16244;51.956;12.980;2023-08-31T11:59:41;15.60;99.90
29201;DHT22;16244;51.956;12.980;2023-08-31T12:02:09;15.80;99.90
29201;DHT22;16244;51.956;12.980;2023-08-31T12:04:43;15.90;99.90
29201;DHT22;16244;51.956;12.980;2023-08-31T12:07:15;16.20;99.90
29201;DHT22;16244;51.956;12.980;2023-08-31T12:09:43;16.30;98.10
29201;DHT22;16244;51.956;12.980;2023-08-31T12:12:14;16.60;97.10
29201;DHT22;16244;51.956;12.980;2023-08-31T12:14:43;16.80;99.00
29201;DHT22;16244;51.956;12.980;2023-08-31T12:17:11;17.10;98.10
29201;DHT22;16244;51.956;12.980;2023-08-31T12:19:39;17.30;98.20
29201;DHT22;16244;51.956;12.980;2023-08-31T12:22:06;17.60;97.60
29201;DHT22;16244;51.956;12.980;2023-08-31T12:24:38;17.60;96.50
29201;DHT22;16244;51.956;12.980;2023-08-31T12:27:06;17.70;98.00
29201;DHT22;16244;51.956;12.980;2023-08-31T12:29:34;17.80;96.30
29201;DHT22;16244;51.956;12.980;2023-08-31T12:32:03;18.00;98.50
29201;DHT22;16244;51.956;12.980;2023-08-31T12:34:31;18.20;97.30
29201;DHT22;16244;51.956;12.980;2023-08-31T12:36:58;18.30;96.00
29201;DHT22;16244;51.956;12.980;2023-08-31T12:39:28;18.50;94.50
29201;DHT22;16244;51.956;12.980;2023-08-31T12:41:56;18.60;95.20
29201;DHT22;16244;51.956;12.980;2023-08-31T12:44:23;18.70;91.50
29201;DHT22;16244;51.956;12.980;2023-08-31T12:46:52;18.50;91.10
29201;DHT22;16244;51.956;12.980;2023-08-31T12:49:20;18.40;86.40
29201;DHT22;16244;51.956;12.980;2023-08-31T12:51:49;17.50;79.70
29201;DHT22;16244;51.956;12.980;2023-08-31T12:54:17;16.90;87.30
29201;DHT22;16244;51.956;12.980;2023-08-31T12:56:45;16.70;90.70
29201;DHT22;16244;51.956;12.980;2023-08-31T12:59:12;16.60;94.00
29201;DHT22;16244;51.956;12.980;2023-08-31T13:01:40;16.50;94.60
29201;DHT22;16244;51.956;12.980;2023-08-31T13:04:07;16.60;95.10
29201;DHT22;16244;51.956;12.980;2023-08-31T13:06:36;16.80;91.20
29201;DHT22;16244;51.956;12.980;2023-08-31T13:09:03;17.00;92.60
29201;DHT22;16244;51.956;12.980;2023-08-31T13:11:34;17.20;93.20
29201;DHT22;16244;51.956;12.980;2023-08-31T13:14:02;17.30;93.40
29201;DHT22;16244;51.956;12.980;2023-08-31T13:16:29;17.50;92.60
29201;DHT22;16244;51.956;12.980;2023-08-31T13:18:58;17.70;91.50
29201;DHT22;16244;51.956;12.980;2023-08-31T13:21:27;17.60;89.30
29201;DHT22;16244;51.956;12.980;2023-08-31T13:23:56;17.50;90.90
29201;DHT22;16244;51.956;12.980;2023-08-31T13:26:23;17.60;91.60
29201;DHT22;16244;51.956;12.980;2023-08-31T13:28:51;17.70;92.90
29201;DHT22;16244;51.956;12.980;2023-08-31T13:31:19;17.70;93.00
29201;DHT22;16244;51.956;12.980;2023-08-31T13:33:47;18.00;91.00
29201;DHT22;16244;51.956;12.980;2023-08-31T13:36:14;18.10;87.30
29201;DHT22;16244;51.956;12.980;2023-08-31T13:38:41;18.10;83.30
29201;DHT22;16244;51.956;12.980;2023-08-31T13:41:10;18.10;81.30
29201;DHT22;16244;51.956;12.980;2023-08-31T13:43:38;18.10;76.20
29201;DHT22;16244;51.956;12.980;2023-08-31T13:46:05;18.00;77.90
29201;DHT22;16244;51.956;12.980;2023-08-31T13:48:32;18.00;77.40
29201;DHT22;16244;51.956;12.980;2023-08-31T13:51:00;17.90;83.50
29201;DHT22;16244;51.956;12.980;2023-08-31T13:53:27;17.90;85.10
29201;DHT22;16244;51.956;12.980;2023-08-31T13:55:55;17.90;78.00
29201;DHT22;16244;51.956;12.980;2023-08-31T13:58:24;17.70;75.20
29201;DHT22;16244;51.956;12.980;2023-08-31T14:00:52;17.60;75.90
29201;DHT22;16244;51.956;12.980;2023-08-31T14:03:19;17.40;89.20
29201;DHT22;16244;51.956;12.980;2023-08-31T14:05:48;17.10;93.90
29201;DHT22;16244;51.956;12.980;2023-08-31T14:08:16;16.90;95.40
29201;DHT22;16244;51.956;12.980;2023-08-31T14:10:43;16.60;93.90
29201;DHT22;16244;51.956;12.980;2023-08-31T14:13:11;16.40;97.00
29201;DHT22;16244;51.956;12.980;2023-08-31T14:15:44;16.30;98.60
29201;DHT22;16244;51.956;12.980;2023-08-31T14:18:13;16.20;99.00
29201;DHT22;16244;51.956;12.980;2023-08-31T14:20:40;16.30;99.90
29201;DHT22;16244;51.956;12.980;2023-08-31T14:23:08;16.30;99.90
29201;DHT22;16244;51.956;12.980;2023-08-31T14:25:36;16.40;99.90
29201;DHT22;16244;51.956;12.980;2023-08-31T14:28:05;16.50;99.30
29201;DHT22;16244;51.956;12.980;2023-08-31T14:30:35;16.40;96.80
29201;DHT22;16244;51.956;12.980;2023-08-31T14:33:05;16.50;97.80
29201;DHT22;16244;51.956;12.980;2023-08-31T14:35:36;16.90;96.50
29201;DHT22;16244;51.956;12.980;2023-08-31T14:38:04;17.50;93.80
29201;DHT22;16244;51.956;12.980;2023-08-31T14:40:31;18.10;90.00
29201;DHT22;16244;51.956;12.980;2023-08-31T14:43:00;18.50;89.30
29201;DHT22;16244;51.956;12.980;2023-08-31T14:45:27;18.90;85.20
29201;DHT22;16244;51.956;12.980;2023-08-31T14:47:55;19.30;82.00
29201;DHT22;16244;51.956;12.980;2023-08-31T14:50:24;19.70;78.20
29201;DHT22;16244;51.956;12.980;2023-08-31T14:52:51;20.00;75.50
29201;DHT22;16244;51.956;12.980;2023-08-31T14:55:19;20.00;73.40
29201;DHT22;16244;51.956;12.980;2023-08-31T14:57:46;20.30;69.50
29201;DHT22;16244;51.956;12.980;2023-08-31T15:00:14;20.60;69.40
29201;DHT22;16244;51.956;12.980;2023-08-31T15:02:41;20.30;61.70
29201;DHT22;16244;51.956;12.980;2023-08-31T15:05:09;20.30;65.10
29201;DHT22;16244;51.956;12.980;2023-08-31T15:07:38;20.40;63.50
29201;DHT22;16244;51.956;12.980;2023-08-31T15:10:07;20.30;62.70
29201;DHT22;16244;51.956;12.980;2023-08-31T15:12:34;20.20;60.40
29201;DHT22;16244;51.956;12.980;2023-08-31T15:15:05;19.80;60.70
29201;DHT22;16244;51.956;12.980;2023-08-31T15:17:35;19.60;60.80
29201;DHT22;16244;51.956;12.980;2023-08-31T15:20:04;18.90;69.80
29201;DHT22;16244;51.956;12.980;2023-08-31T15:22:34;18.40;70.70